sensor_id;sensor_type;location;lat;lon;timestamp;pressure;altitude;pressure_sealevel;temperature;humidity
56052;BME280;41919;42.648;23.384;2023-04-09T00:01:07;94788.63;;;6.65;100.00
56052;BME280;41919;42.648;23.384;2023-04-09T00:03:33;94781.91;;;6.47;100.00
56052;BME280;41919;42.648;23.384;2023-04-09T00:05:59;94699.38;;;5.97;100.00
56052;BME280;41919;42.648;23.384;2023-04-09T00:08:24;94764.59;;;6.40;100.00
56052;BME280;41919;42.648;23.384;2023-04-09T00:10:51;94757.38;;;6.27;100.00
56052;BME280;41919;42.648;23.384;2023-04-09T00:13:17;94650.69;;;5.36;100.00
56052;BME280;41919;42.648;23.384;2023-04-09T00:15:43;94708.53;;;5.76;100.00
56052;BME280;41919;42.648;23.384;2023-04-09T00:18:09;94703.84;;;5.72;100.00
56052;BME280;41919;42.648;23.384;2023-04-09T00:20:35;94770.47;;;6.11;100.00
56052;BME280;41919;42.648;23.384;2023-04-09T00:23:00;94796.16;;;6.28;100.00
56052;BME280;41919;42.648;23.384;2023-04-09T00:25:25;94775.44;;;6.20;100.00
56052;BME280;41919;42.648;23.384;2023-04-09T00:27:53;94781.03;;;6.32;100.00
56052;BME280;41919;42.648;23.384;2023-04-09T00:30:18;94735.75;;;6.12;100.00
56052;BME280;41919;42.648;23.384;2023-04-09T00:32:44;94724.94;;;6.00;100.00
56052;BME280;41919;42.648;23.384;2023-04-09T00:35:09;94791.59;;;6.54;100.00
56052;BME280;41919;42.648;23.384;2023-04-09T00:37:35;94702.25;;;5.94;100.00
56052;BME280;41919;42.648;23.384;2023-04-09T00:40:00;94780.75;;;6.27;100.00
56052;BME280;41919;42.648;23.384;2023-04-09T00:42:26;94794.66;;;6.34;100.00
56052;BME280;41919;42.648;23.384;2023-04-09T00:44:51;94786.22;;;6.32;100.00
56052;BME280;41919;42.648;23.384;2023-04-09T00:47:17;94788.50;;;6.35;100.00
56052;BME280;41919;42.648;23.384;2023-04-09T00:49:42;94788.28;;;6.45;100.00
56052;BME280;41919;42.648;23.384;2023-04-09T00:52:09;94793.47;;;6.45;100.00
56052;BME280;41919;42.648;23.384;2023-04-09T00:54:34;94762.72;;;6.34;100.00
56052;BME280;41919;42.648;23.384;2023-04-09T00:57:00;94787.09;;;6.47;100.00
56052;BME280;41919;42.648;23.384;2023-04-09T00:59:25;94788.56;;;6.50;100.00
56052;BME280;41919;42.648;23.384;2023-04-09T01:01:51;94744.75;;;6.01;100.00
56052;BME280;41919;42.648;23.384;2023-04-09T01:04:18;94725.81;;;5.84;100.00
56052;BME280;41919;42.648;23.384;2023-04-09T01:06:50;94774.03;;;6.09;100.00
56052;BME280;41919;42.648;23.384;2023-04-09T01:09:40;94742.31;;;5.91;100.00
56052;BME280;41919;42.648;23.384;2023-04-09T01:12:30;94801.56;;;6.19;100.00
56052;BME280;41919;42.648;23.384;2023-04-09T01:15:10;94743.25;;;5.67;100.00
56052;BME280;41919;42.648;23.384;2023-04-09T01:18:04;94801.81;;;6.01;100.00
56052;BME280;41919;42.648;23.384;2023-04-09T01:28:34;94789.81;;;5.92;100.00
56052;BME280;41919;42.648;23.384;2023-04-09T01:31:06;94801.19;;;5.99;100.00
56052;BME280;41919;42.648;23.384;2023-04-09T01:33:33;94757.66;;;5.69;100.00
56052;BME280;41919;42.648;23.384;2023-04-09T01:36:00;94782.88;;;5.84;100.00
56052;BME280;41919;42.648;23.384;2023-04-09T01:38:26;94786.28;;;5.84;100.00
56052;BME280;41919;42.648;23.384;2023-04-09T01:40:53;94796.16;;;5.81;100.00
56052;BME280;41919;42.648;23.384;2023-04-09T01:43:20;94793.41;;;5.82;100.00
56052;BME280;41919;42.648;23.384;2023-04-09T01:45:46;94728.41;;;5.44;100.00
56052;BME280;41919;42.648;23.384;2023-04-09T01:48:12;94777.25;;;5.72;100.00
56052;BME280;41919;42.648;23.384;2023-04-09T01:50:38;94765.91;;;5.73;100.00
56052;BME280;41919;42.648;23.384;2023-04-09T01:53:04;94798.84;;;6.12;100.00
56052;BME280;41919;42.648;23.384;2023-04-09T01:55:30;94766.81;;;5.88;100.00
56052;BME280;41919;42.648;23.384;2023-04-09T01:57:55;94784.47;;;5.93;100.00
56052;BME280;41919;42.648;23.384;2023-04-09T02:00:22;94775.78;;;5.78;100.00
56052;BME280;41919;42.648;23.384;2023-04-09T02:03:04;94767.22;;;5.69;100.00
56052;BME280;41919;42.648;23.384;2023-04-09T02:05:35;94703.25;;;5.22;100.00
56052;BME280;41919;42.648;23.384;2023-04-09T02:08:02;94791.13;;;5.87;100.00
56052;BME280;41919;42.648;23.384;2023-04-09T02:10:30;94711.94;;;5.37;100.00
56052;BME280;41919;42.648;23.384;2023-04-09T02:13:00;94749.44;;;5.58;100.00
56052;BME280;41919;42.648;23.384;2023-04-09T02:15:27;94733.59;;;5.53;100.00
56052;BME280;41919;42.648;23.384;2023-04-09T02:17:55;94764.63;;;5.69;100.00
56052;BME280;41919;42.648;23.384;2023-04-09T02:20:20;94769.19;;;5.59;100.00
56052;BME280;41919;42.648;23.384;2023-04-09T02:22:46;94750.81;;;5.29;100.00
56052;BME280;41919;42.648;23.384;2023-04-09T02:25:11;94752.56;;;5.37;100.00
56052;BME280;41919;42.648;23.384;2023-04-09T02:27:37;94754.03;;;5.31;100.00
56052;BME280;41919;42.648;23.384;2023-04-09T02:30:03;94772.69;;;5.26;100.00
56052;BME280;41919;42.648;23.384;2023-04-09T02:32:28;94724.69;;;4.83;100.00
56052;BME280;41919;42.648;23.384;2023-04-09T02:34:54;94797.63;;;5.36;100.00
56052;BME280;41919;42.648;23.384;2023-04-09T02:37:19;94797.13;;;5.40;100.00
56052;BME280;41919;42.648;23.384;2023-04-09T02:39:44;94785.00;;;5.24;100.00
56052;BME280;41919;42.648;23.384;2023-04-09T02:42:10;94768.97;;;5.21;100.00
56052;BME280;41919;42.648;23.384;2023-04-09T02:44:35;94786.41;;;5.52;100.00
56052;BME280;41919;42.648;23.384;2023-04-09T02:47:01;94708.94;;;5.09;100.00
56052;BME280;41919;42.648;23.384;2023-04-09T02:49:27;94710.38;;;5.20;100.00
56052;BME280;41919;42.648;23.384;2023-04-09T02:51:52;94675.78;;;5.04;100.00
56052;BME280;41919;42.648;23.384;2023-04-09T02:54:18;94681.88;;;5.11;100.00
56052;BME280;41919;42.648;23.384;2023-04-09T02:56:43;94772.56;;;5.76;100.00
56052;BME280;41919;42.648;23.384;2023-04-09T02:59:09;94782.25;;;5.82;100.00
56052;BME280;41919;42.648;23.384;2023-04-09T03:01:35;94784.03;;;5.81;100.00
56052;BME280;41919;42.648;23.384;2023-04-09T03:04:00;94791.47;;;5.84;100.00
56052;BME280;41919;42.648;23.384;2023-04-09T03:06:26;94682.34;;;5.15;100.00
56052;BME280;41919;42.648;23.384;2023-04-09T03:08:51;94786.78;;;5.80;100.00
56052;BME280;41919;42.648;23.384;2023-04-09T03:11:17;94789.56;;;5.78;100.00
56052;BME280;41919;42.648;23.384;2023-04-09T03:13:42;94754.59;;;5.58;100.00
56052;BME280;41919;42.648;23.384;2023-04-09T03:16:08;94771.78;;;5.59;100.00
56052;BME280;41919;42.648;23.384;2023-04-09T03:18:35;94787.00;;;5.62;100.00
56052;BME280;41919;42.648;23.384;2023-04-09T03:21:04;94751.44;;;5.39;100.00
56052;BME280;41919;42.648;23.384;2023-04-09T03:23:30;94786.72;;;5.57;100.00
56052;BME280;41919;42.648;23.384;2023-04-09T03:26:03;94780.53;;;5.66;100.00
56052;BME280;41919;42.648;23.384;2023-04-09T03:28:28;94781.81;;;5.62;100.00
56052;BME280;41919;42.648;23.384;2023-04-09T03:30:54;94704.25;;;5.04;100.00
56052;BME280;41919;42.648;23.384;2023-04-09T03:33:20;94786.34;;;5.68;100.00
56052;BME280;41919;42.648;23.384;2023-04-09T03:35:45;94773.75;;;5.57;100.00
56052;BME280;41919;42.648;23.384;2023-04-09T03:38:10;94772.75;;;5.66;100.00
56052;BME280;41919;42.648;23.384;2023-04-09T03:40:36;94725.25;;;5.18;100.00
56052;BME280;41919;42.648;23.384;2023-04-09T03:43:01;94795.88;;;5.76;100.00
56052;BME280;41919;42.648;23.384;2023-04-09T03:45:28;94726.84;;;5.35;100.00
56052;BME280;41919;42.648;23.384;2023-04-09T03:47:54;94794.41;;;5.73;100.00
56052;BME280;41919;42.648;23.384;2023-04-09T03:50:19;94787.94;;;5.77;100.00
56052;BME280;41919;42.648;23.384;2023-04-09T03:52:45;94776.78;;;5.68;100.00
56052;BME280;41919;42.648;23.384;2023-04-09T03:55:11;94797.00;;;5.81;100.00
56052;BME280;41919;42.648;23.384;2023-04-09T03:57:36;94702.94;;;5.08;100.00
56052;BME280;41919;42.648;23.384;2023-04-09T04:00:02;94775.69;;;5.55;100.00
56052;BME280;41919;42.648;23.384;2023-04-09T04:02:28;94788.94;;;5.60;100.00
56052;BME280;41919;42.648;23.384;2023-04-09T04:05:00;94745.94;;;5.34;100.00
56052;BME280;41919;42.648;23.384;2023-04-09T04:07:25;94711.06;;;4.97;100.00
56052;BME280;41919;42.648;23.384;2023-04-09T04:09:51;94803.72;;;5.59;100.00
56052;BME280;41919;42.648;23.384;2023-04-09T04:12:17;94786.25;;;5.45;100.00
56052;BME280;41919;42.648;23.384;2023-04-09T04:14:42;94753.75;;;5.26;100.00
56052;BME280;41919;42.648;23.384;2023-04-09T04:17:07;94809.06;;;5.66;100.00
56052;BME280;41919;42.648;23.384;2023-04-09T04:19:34;94757.94;;;5.35;100.00
56052;BME280;41919;42.648;23.384;2023-04-09T04:21:59;94801.75;;;5.69;100.00
56052;BME280;41919;42.648;23.384;2023-04-09T04:24:25;94793.84;;;5.55;100.00
56052;BME280;41919;42.648;23.384;2023-04-09T04:26:50;94772.31;;;5.46;100.00
56052;BME280;41919;42.648;23.384;2023-04-09T04:29:16;94775.06;;;5.44;100.00
56052;BME280;41919;42.648;23.384;2023-04-09T04:31:41;94782.19;;;5.50;100.00
56052;BME280;41919;42.648;23.384;2023-04-09T04:34:07;94788.94;;;5.60;100.00
56052;BME280;41919;42.648;23.384;2023-04-09T04:36:32;94736.72;;;5.32;100.00
56052;BME280;41919;42.648;23.384;2023-04-09T04:38:58;94672.38;;;4.96;100.00
56052;BME280;41919;42.648;23.384;2023-04-09T04:41:23;94818.69;;;5.97;100.00
56052;BME280;41919;42.648;23.384;2023-04-09T04:43:49;94740.81;;;5.65;100.00
56052;BME280;41919;42.648;23.384;2023-04-09T04:46:14;94714.31;;;5.47;100.00
56052;BME280;41919;42.648;23.384;2023-04-09T04:48:40;94779.75;;;6.05;100.00
56052;BME280;41919;42.648;23.384;2023-04-09T04:51:05;94823.09;;;6.27;100.00
56052;BME280;41919;42.648;23.384;2023-04-09T04:53:31;94824.88;;;6.27;100.00
56052;BME280;41919;42.648;23.384;2023-04-09T04:55:56;94714.81;;;5.50;100.00
56052;BME280;41919;42.648;23.384;2023-04-09T04:58:22;94812.72;;;6.19;100.00
56052;BME280;41919;42.648;23.384;2023-04-09T05:00:47;94820.44;;;6.36;100.00
56052;BME280;41919;42.648;23.384;2023-04-09T05:03:13;94824.16;;;6.64;100.00
56052;BME280;41919;42.648;23.384;2023-04-09T05:05:38;94793.47;;;6.68;100.00
56052;BME280;41919;42.648;23.384;2023-04-09T05:08:04;94742.78;;;6.72;100.00
56052;BME280;41919;42.648;23.384;2023-04-09T05:10:30;94751.94;;;7.06;100.00
56052;BME280;41919;42.648;23.384;2023-04-09T05:12:55;94802.78;;;7.53;100.00
56052;BME280;41919;42.648;23.384;2023-04-09T05:15:21;94761.63;;;7.27;100.00
56052;BME280;41919;42.648;23.384;2023-04-09T05:17:46;94743.88;;;7.31;100.00
56052;BME280;41919;42.648;23.384;2023-04-09T05:20:12;94763.78;;;7.38;100.00
56052;BME280;41919;42.648;23.384;2023-04-09T05:22:37;94733.66;;;7.29;100.00
56052;BME280;41919;42.648;23.384;2023-04-09T05:25:03;94739.75;;;7.36;100.00
56052;BME280;41919;42.648;23.384;2023-04-09T05:27:29;94818.50;;;7.60;100.00
56052;BME280;41919;42.648;23.384;2023-04-09T05:29:54;94756.31;;;7.20;100.00
56052;BME280;41919;42.648;23.384;2023-04-09T05:32:20;94779.53;;;7.22;99.80
56052;BME280;41919;42.648;23.384;2023-04-09T05:34:45;94803.41;;;7.25;100.00
56052;BME280;41919;42.648;23.384;2023-04-09T05:37:11;94823.66;;;7.30;100.00
56052;BME280;41919;42.648;23.384;2023-04-09T05:39:37;94815.97;;;7.37;100.00
56052;BME280;41919;42.648;23.384;2023-04-09T05:42:02;94812.44;;;7.30;100.00
56052;BME280;41919;42.648;23.384;2023-04-09T05:44:28;94824.91;;;7.34;100.00
56052;BME280;41919;42.648;23.384;2023-04-09T05:46:53;94818.41;;;7.38;100.00
56052;BME280;41919;42.648;23.384;2023-04-09T05:49:19;94795.59;;;7.25;100.00
56052;BME280;41919;42.648;23.384;2023-04-09T05:51:44;94811.59;;;7.52;99.84
56052;BME280;41919;42.648;23.384;2023-04-09T05:54:10;94791.31;;;7.47;99.48
56052;BME280;41919;42.648;23.384;2023-04-09T05:56:36;94816.41;;;7.55;100.00
56052;BME280;41919;42.648;23.384;2023-04-09T05:59:01;94761.44;;;7.43;98.91
56052;BME280;41919;42.648;23.384;2023-04-09T06:01:27;94802.00;;;7.82;98.06
56052;BME280;41919;42.648;23.384;2023-04-09T06:03:54;94831.22;;;7.99;96.84
56052;BME280;41919;42.648;23.384;2023-04-09T06:06:19;94803.88;;;7.74;97.48
56052;BME280;41919;42.648;23.384;2023-04-09T06:08:44;94833.66;;;7.86;98.28
56052;BME280;41919;42.648;23.384;2023-04-09T06:11:10;94822.81;;;7.82;94.50
56052;BME280;41919;42.648;23.384;2023-04-09T06:13:36;94825.50;;;7.89;94.15
56052;BME280;41919;42.648;23.384;2023-04-09T06:16:06;94824.50;;;8.05;94.50
56052;BME280;41919;42.648;23.384;2023-04-09T06:18:31;94833.47;;;8.17;91.02
56052;BME280;41919;42.648;23.384;2023-04-09T06:21:07;94749.69;;;7.62;93.93
56052;BME280;41919;42.648;23.384;2023-04-09T06:23:35;94812.09;;;8.22;91.61
56052;BME280;41919;42.648;23.384;2023-04-09T06:26:01;94804.16;;;8.30;87.35
56052;BME280;41919;42.648;23.384;2023-04-09T06:28:27;94828.28;;;8.69;84.43
56052;BME280;41919;42.648;23.384;2023-04-09T06:30:53;94768.53;;;8.67;83.07
56052;BME280;41919;42.648;23.384;2023-04-09T06:33:20;94759.06;;;9.09;82.19
56052;BME280;41919;42.648;23.384;2023-04-09T06:35:45;94827.00;;;9.92;79.17
56052;BME280;41919;42.648;23.384;2023-04-09T06:38:11;94826.13;;;10.13;75.66
56052;BME280;41919;42.648;23.384;2023-04-09T06:40:37;94768.84;;;10.05;73.98
56052;BME280;41919;42.648;23.384;2023-04-09T06:43:03;94818.09;;;10.21;75.81
56052;BME280;41919;42.648;23.384;2023-04-09T06:45:29;94797.63;;;9.49;73.78
56052;BME280;41919;42.648;23.384;2023-04-09T06:47:55;94765.69;;;9.12;77.66
56052;BME280;41919;42.648;23.384;2023-04-09T06:50:21;94849.38;;;9.73;76.32
56052;BME280;41919;42.648;23.384;2023-04-09T06:52:46;94836.31;;;9.67;77.06
56052;BME280;41919;42.648;23.384;2023-04-09T06:55:12;94845.81;;;9.53;77.64
56052;BME280;41919;42.648;23.384;2023-04-09T06:57:38;94779.47;;;9.06;76.15
56052;BME280;41919;42.648;23.384;2023-04-09T07:00:03;94734.34;;;9.33;73.03
56052;BME280;41919;42.648;23.384;2023-04-09T07:02:29;94764.72;;;9.48;72.76
56052;BME280;41919;42.648;23.384;2023-04-09T07:04:54;94834.75;;;9.44;74.87
56052;BME280;41919;42.648;23.384;2023-04-09T07:07:20;94853.09;;;9.57;75.82
56052;BME280;41919;42.648;23.384;2023-04-09T07:09:47;94789.78;;;9.77;74.66
56052;BME280;41919;42.648;23.384;2023-04-09T07:12:12;94857.44;;;10.13;74.31
56052;BME280;41919;42.648;23.384;2023-04-09T07:14:38;94851.63;;;9.76;75.26
56052;BME280;41919;42.648;23.384;2023-04-09T07:17:03;94855.97;;;9.41;74.41
56052;BME280;41919;42.648;23.384;2023-04-09T07:19:29;94852.91;;;9.09;76.14
56052;BME280;41919;42.648;23.384;2023-04-09T07:21:55;94841.03;;;9.07;77.60
56052;BME280;41919;42.648;23.384;2023-04-09T07:24:20;94854.78;;;8.94;77.95
56052;BME280;41919;42.648;23.384;2023-04-09T07:26:46;94875.38;;;8.52;78.12
56052;BME280;41919;42.648;23.384;2023-04-09T07:29:11;94793.63;;;8.02;81.47
56052;BME280;41919;42.648;23.384;2023-04-09T07:31:37;94860.47;;;8.46;80.74
56052;BME280;41919;42.648;23.384;2023-04-09T07:34:02;94794.25;;;8.04;79.90
56052;BME280;41919;42.648;23.384;2023-04-09T07:36:28;94778.13;;;7.79;77.75
56052;BME280;41919;42.648;23.384;2023-04-09T07:38:53;94772.28;;;7.92;79.48
56052;BME280;41919;42.648;23.384;2023-04-09T07:41:19;94881.56;;;8.51;79.51
56052;BME280;41919;42.648;23.384;2023-04-09T07:43:45;94803.31;;;8.08;78.12
56052;BME280;41919;42.648;23.384;2023-04-09T07:46:10;94876.72;;;8.48;77.94
56052;BME280;41919;42.648;23.384;2023-04-09T07:48:36;94872.31;;;8.49;78.77
56052;BME280;41919;42.648;23.384;2023-04-09T07:51:01;94791.59;;;7.82;79.63
56052;BME280;41919;42.648;23.384;2023-04-09T07:53:27;94877.16;;;8.37;79.41
56052;BME280;41919;42.648;23.384;2023-04-09T07:55:52;94873.56;;;8.38;79.92
56052;BME280;41919;42.648;23.384;2023-04-09T07:58:18;94891.81;;;8.23;79.03
56052;BME280;41919;42.648;23.384;2023-04-09T08:00:43;94805.13;;;7.78;80.92
56052;BME280;41919;42.648;23.384;2023-04-09T08:03:08;94843.16;;;8.09;79.57
56052;BME280;41919;42.648;23.384;2023-04-09T08:05:34;94771.50;;;7.46;79.05
56052;BME280;41919;42.648;23.384;2023-04-09T08:08:02;94872.88;;;7.99;81.18
56052;BME280;41919;42.648;23.384;2023-04-09T08:10:27;94858.97;;;7.92;81.73
56052;BME280;41919;42.648;23.384;2023-04-09T08:12:53;94895.22;;;8.23;80.88
56052;BME280;41919;42.648;23.384;2023-04-09T08:15:19;94898.38;;;8.19;80.58
56052;BME280;41919;42.648;23.384;2023-04-09T08:17:44;94905.28;;;8.12;82.27
56052;BME280;41919;42.648;23.384;2023-04-09T08:20:10;94888.41;;;7.93;82.94
56052;BME280;41919;42.648;23.384;2023-04-09T08:22:35;94908.78;;;8.04;83.43
56052;BME280;41919;42.648;23.384;2023-04-09T08:25:01;94898.47;;;7.96;81.86
56052;BME280;41919;42.648;23.384;2023-04-09T08:27:26;94896.13;;;8.01;84.21
56052;BME280;41919;42.648;23.384;2023-04-09T08:29:52;94893.31;;;7.88;84.30
56052;BME280;41919;42.648;23.384;2023-04-09T08:32:17;94895.03;;;7.95;84.57
56052;BME280;41919;42.648;23.384;2023-04-09T08:34:43;94906.28;;;7.96;85.37
56052;BME280;41919;42.648;23.384;2023-04-09T08:37:08;94823.78;;;7.66;83.74
56052;BME280;41919;42.648;23.384;2023-04-09T08:39:33;94828.53;;;7.63;84.31
56052;BME280;41919;42.648;23.384;2023-04-09T08:42:00;94808.38;;;7.50;82.83
56052;BME280;41919;42.648;23.384;2023-04-09T08:44:26;94896.41;;;8.06;85.44
56052;BME280;41919;42.648;23.384;2023-04-09T08:46:52;94875.56;;;8.06;86.11
56052;BME280;41919;42.648;23.384;2023-04-09T08:49:18;94897.31;;;8.13;83.86
56052;BME280;41919;42.648;23.384;2023-04-09T08:51:45;94891.81;;;8.08;84.90
56052;BME280;41919;42.648;23.384;2023-04-09T08:54:14;94856.28;;;7.85;86.58
56052;BME280;41919;42.648;23.384;2023-04-09T08:56:40;94802.88;;;7.45;84.88
56052;BME280;41919;42.648;23.384;2023-04-09T08:59:06;94882.19;;;7.94;86.89
56052;BME280;41919;42.648;23.384;2023-04-09T09:01:31;94873.41;;;7.95;88.75
56052;BME280;41919;42.648;23.384;2023-04-09T09:04:07;94827.31;;;7.89;84.33
56052;BME280;41919;42.648;23.384;2023-04-09T09:06:35;94868.03;;;8.11;84.40
56052;BME280;41919;42.648;23.384;2023-04-09T09:09:03;94857.53;;;8.04;83.57
56052;BME280;41919;42.648;23.384;2023-04-09T09:11:31;94783.41;;;7.71;84.45
56052;BME280;41919;42.648;23.384;2023-04-09T09:14:01;94859.03;;;8.29;84.09
56052;BME280;41919;42.648;23.384;2023-04-09T09:16:27;94781.53;;;7.79;83.61
56052;BME280;41919;42.648;23.384;2023-04-09T09:18:53;94855.16;;;8.39;82.47
56052;BME280;41919;42.648;23.384;2023-04-09T09:21:22;94757.94;;;7.81;82.78
56052;BME280;41919;42.648;23.384;2023-04-09T09:23:47;94705.13;;;7.51;82.47
56052;BME280;41919;42.648;23.384;2023-04-09T09:26:16;94836.41;;;8.44;80.50
56052;BME280;41919;42.648;23.384;2023-04-09T09:28:44;94854.06;;;8.63;81.33
56052;BME280;41919;42.648;23.384;2023-04-09T09:31:11;94845.28;;;8.86;80.63
56052;BME280;41919;42.648;23.384;2023-04-09T09:33:37;94844.75;;;8.76;79.68
56052;BME280;41919;42.648;23.384;2023-04-09T09:36:03;94763.19;;;8.39;79.83
56052;BME280;41919;42.648;23.384;2023-04-09T09:38:29;94818.16;;;8.80;79.06
56052;BME280;41919;42.648;23.384;2023-04-09T09:40:55;94791.16;;;8.88;78.03
56052;BME280;41919;42.648;23.384;2023-04-09T09:43:20;94840.03;;;9.29;76.63
56052;BME280;41919;42.648;23.384;2023-04-09T09:45:46;94833.06;;;9.36;74.37
56052;BME280;41919;42.648;23.384;2023-04-09T09:48:12;94834.84;;;9.57;72.49
56052;BME280;41919;42.648;23.384;2023-04-09T09:50:39;94829.47;;;9.66;72.48
56052;BME280;41919;42.648;23.384;2023-04-09T09:53:07;94832.94;;;9.79;72.16
56052;BME280;41919;42.648;23.384;2023-04-09T09:55:38;94743.53;;;9.64;71.98
56052;BME280;41919;42.648;23.384;2023-04-09T09:58:20;94753.72;;;9.94;69.27
56052;BME280;41919;42.648;23.384;2023-04-09T10:00:48;94765.06;;;10.14;68.99
56052;BME280;41919;42.648;23.384;2023-04-09T10:03:24;94830.53;;;10.61;68.93
56052;BME280;41919;42.648;23.384;2023-04-09T10:05:50;94812.25;;;10.68;69.07
56052;BME280;41919;42.648;23.384;2023-04-09T10:08:18;94807.69;;;11.10;67.58
56052;BME280;41919;42.648;23.384;2023-04-09T10:10:44;94752.97;;;10.82;66.41
56052;BME280;41919;42.648;23.384;2023-04-09T10:13:15;94774.28;;;11.12;65.95
56052;BME280;41919;42.648;23.384;2023-04-09T10:15:45;94795.22;;;11.18;65.14
56052;BME280;41919;42.648;23.384;2023-04-09T10:18:11;94735.06;;;11.12;63.96
56052;BME280;41919;42.648;23.384;2023-04-09T10:20:45;94743.09;;;11.30;64.02
56052;BME280;41919;42.648;23.384;2023-04-09T10:23:39;94810.28;;;11.76;62.74
56052;BME280;41919;42.648;23.384;2023-04-09T10:26:05;94768.44;;;11.50;61.75
56052;BME280;41919;42.648;23.384;2023-04-09T10:28:31;94805.88;;;11.70;62.45
56052;BME280;41919;42.648;23.384;2023-04-09T10:30:57;94809.66;;;12.01;62.02
56052;BME280;41919;42.648;23.384;2023-04-09T10:33:25;94780.94;;;11.41;61.83
56052;BME280;41919;42.648;23.384;2023-04-09T10:36:00;94801.25;;;11.46;62.95
56052;BME280;41919;42.648;23.384;2023-04-09T10:38:40;94797.00;;;11.45;63.43
56052;BME280;41919;42.648;23.384;2023-04-09T10:43:37;94763.81;;;11.25;62.28
56052;BME280;41919;42.648;23.384;2023-04-09T10:46:06;94714.16;;;10.92;63.20
56052;BME280;41919;42.648;23.384;2023-04-09T10:48:33;94795.41;;;11.44;63.07
56052;BME280;41919;42.648;23.384;2023-04-09T10:51:01;94772.25;;;11.54;62.81
56052;BME280;41919;42.648;23.384;2023-04-09T10:53:31;94739.66;;;11.36;62.61
56052;BME280;41919;42.648;23.384;2023-04-09T10:55:56;94771.44;;;11.67;61.25
56052;BME280;41919;42.648;23.384;2023-04-09T10:58:22;94778.09;;;11.63;61.39
56052;BME280;41919;42.648;23.384;2023-04-09T11:00:49;94765.41;;;11.60;61.29
56052;BME280;41919;42.648;23.384;2023-04-09T11:06:05;94750.34;;;11.42;61.53
56052;BME280;41919;42.648;23.384;2023-04-09T11:08:34;94705.69;;;11.16;61.88
56052;BME280;41919;42.648;23.384;2023-04-09T11:11:00;94761.19;;;11.52;63.28
56052;BME280;41919;42.648;23.384;2023-04-09T11:13:26;94758.13;;;11.68;63.63
56052;BME280;41919;42.648;23.384;2023-04-09T11:15:54;94736.72;;;11.85;61.59
56052;BME280;41919;42.648;23.384;2023-04-09T11:20:53;94689.78;;;11.96;57.64
56052;BME280;41919;42.648;23.384;2023-04-09T11:23:19;94657.97;;;11.86;57.80
56052;BME280;41919;42.648;23.384;2023-04-09T11:25:48;94739.72;;;12.47;56.42
56052;BME280;41919;42.648;23.384;2023-04-09T11:28:14;94726.47;;;12.67;55.64
56052;BME280;41919;42.648;23.384;2023-04-09T11:30:40;94744.91;;;12.85;55.47
56052;BME280;41919;42.648;23.384;2023-04-09T11:33:06;94681.84;;;12.48;54.50
56052;BME280;41919;42.648;23.384;2023-04-09T11:35:33;94740.47;;;12.54;49.37
56052;BME280;41919;42.648;23.384;2023-04-09T11:37:59;94734.78;;;12.25;49.60
56052;BME280;41919;42.648;23.384;2023-04-09T11:40:26;94672.91;;;11.79;49.85
56052;BME280;41919;42.648;23.384;2023-04-09T11:42:54;94723.75;;;12.10;47.25
56052;BME280;41919;42.648;23.384;2023-04-09T11:45:23;94741.84;;;12.25;48.06
56052;BME280;41919;42.648;23.384;2023-04-09T11:47:49;94717.31;;;12.12;45.83
56052;BME280;41919;42.648;23.384;2023-04-09T11:50:16;94733.28;;;12.04;48.20
56052;BME280;41919;42.648;23.384;2023-04-09T11:52:43;94640.81;;;11.45;45.94
56052;BME280;41919;42.648;23.384;2023-04-09T11:55:09;94737.53;;;11.92;43.87
56052;BME280;41919;42.648;23.384;2023-04-09T11:57:45;94735.97;;;11.91;44.84
56052;BME280;41919;42.648;23.384;2023-04-09T12:00:15;94718.00;;;11.88;46.39
56052;BME280;41919;42.648;23.384;2023-04-09T12:02:48;94729.69;;;11.99;45.72
56052;BME280;41919;42.648;23.384;2023-04-09T12:05:21;94708.53;;;11.93;45.18
56052;BME280;41919;42.648;23.384;2023-04-09T12:07:47;94690.78;;;11.95;46.04
56052;BME280;41919;42.648;23.384;2023-04-09T12:10:13;94721.53;;;12.13;46.45
56052;BME280;41919;42.648;23.384;2023-04-09T12:12:43;94659.19;;;11.84;45.03
56052;BME280;41919;42.648;23.384;2023-04-09T12:15:23;94722.31;;;12.21;47.06
56052;BME280;41919;42.648;23.384;2023-04-09T12:17:58;94713.97;;;12.37;43.91
56052;BME280;41919;42.648;23.384;2023-04-09T12:23:03;94692.41;;;12.35;44.41
56052;BME280;41919;42.648;23.384;2023-04-09T12:25:30;94700.00;;;12.43;46.63
56052;BME280;41919;42.648;23.384;2023-04-09T12:27:56;94705.94;;;12.32;45.54
56052;BME280;41919;42.648;23.384;2023-04-09T12:30:23;94701.34;;;12.27;46.58
56052;BME280;41919;42.648;23.384;2023-04-09T12:32:49;94705.34;;;12.23;47.56
56052;BME280;41919;42.648;23.384;2023-04-09T12:35:15;94635.63;;;11.84;46.62
56052;BME280;41919;42.648;23.384;2023-04-09T12:37:41;94676.66;;;12.03;47.95
56052;BME280;41919;42.648;23.384;2023-04-09T12:40:07;94699.84;;;12.38;48.21
56052;BME280;41919;42.648;23.384;2023-04-09T12:42:32;94581.72;;;11.69;47.38
56052;BME280;41919;42.648;23.384;2023-04-09T12:44:58;94669.53;;;12.17;47.93
56052;BME280;41919;42.648;23.384;2023-04-09T12:47:23;94637.78;;;12.00;48.10
56052;BME280;41919;42.648;23.384;2023-04-09T12:49:48;94635.78;;;11.89;48.15
56052;BME280;41919;42.648;23.384;2023-04-09T12:52:15;94694.13;;;12.16;48.54
56052;BME280;41919;42.648;23.384;2023-04-09T12:54:42;94672.44;;;11.89;49.65
56052;BME280;41919;42.648;23.384;2023-04-09T12:57:08;94633.69;;;11.66;48.91
56052;BME280;41919;42.648;23.384;2023-04-09T12:59:33;94620.22;;;11.62;49.62
56052;BME280;41919;42.648;23.384;2023-04-09T13:01:59;94694.66;;;11.93;48.72
56052;BME280;41919;42.648;23.384;2023-04-09T13:04:24;94617.63;;;11.55;49.13
56052;BME280;41919;42.648;23.384;2023-04-09T13:06:50;94638.31;;;11.64;48.54
56052;BME280;41919;42.648;23.384;2023-04-09T13:09:15;94613.78;;;11.58;49.04